Time;durP1;ratioP1;P1;durP2;ratioP2;P2;SDS_P1;SDS_P2;PMS_P1;PMS_P2;Temp;Humidity;BMP_temperature;BMP_pressure;BME280_temperature;BME280_humidity;BME280_pressure;Samples;Min_cycle;Max_cycle;Signal;HPM_P1;HPM_P2
2023/09/15 00:01:00;;;;;;;8.02;6.47;;;12.50;99.90;;;;;;2092290;28;20035;-69
2023/09/15 00:02:01;;;;;;;11.00;6.85;;;12.50;99.90;;;;;;2089799;28;20086;-69
2023/09/15 00:03:03;;;;;;;9.02;6.68;;;12.50;99.90;;;;;;2089386;28;20020;-69
2023/09/15 00:04:06;;;;;;;10.27;6.93;;;12.50;99.90;;;;;;2088411;28;20032;-69
2023/09/15 00:05:08;;;;;;;10.45;6.50;;;12.50;99.90;;;;;;2095614;28;20032;-69
2023/09/15 00:06:09;;;;;;;9.75;7.05;;;12.50;99.90;;;;;;2092357;28;20071;-68
2023/09/15 00:07:09;;;;;;;10.23;6.40;;;12.50;99.90;;;;;;2092785;28;20047;-69
2023/09/15 00:08:10;;;;;;;8.43;6.45;;;12.50;99.90;;;;;;2092064;28;20131;-70
2023/09/15 00:09:18;;;;;;;10.15;6.90;;;12.40;99.90;;;;;;2093792;28;20024;-70
2023/09/15 00:10:19;;;;;;;9.50;6.90;;;12.50;99.90;;;;;;2085276;28;20037;-69
2023/09/15 00:11:22;;;;;;;10.25;6.65;;;12.50;99.90;;;;;;2089791;28;20033;-68
2023/09/15 00:12:22;;;;;;;8.50;6.72;;;12.50;99.90;;;;;;2093265;28;20029;-68
2023/09/15 00:13:23;;;;;;;10.77;6.75;;;12.40;99.90;;;;;;2094678;28;20020;-68
2023/09/15 00:14:24;;;;;;;9.20;6.50;;;12.40;99.90;;;;;;2090163;28;20025;-71
2023/09/15 00:15:25;;;;;;;7.95;6.50;;;12.40;99.90;;;;;;2085352;28;20509;-69
2023/09/15 00:16:26;;;;;;;8.25;6.55;;;12.40;99.90;;;;;;2086501;28;20442;-68
2023/09/15 00:17:27;;;;;;;8.85;7.10;;;12.40;99.90;;;;;;2086029;28;20028;-70
2023/09/15 00:18:28;;;;;;;8.90;6.22;;;12.40;99.90;;;;;;2084466;28;20472;-68
2023/09/15 00:19:29;;;;;;;8.07;6.50;;;12.40;99.90;;;;;;2093334;28;20024;-68
2023/09/15 00:20:30;;;;;;;9.45;7.13;;;12.40;99.90;;;;;;2092583;28;20475;-68
2023/09/15 00:21:31;;;;;;;8.93;6.78;;;12.40;99.90;;;;;;2085160;28;20029;-68
2023/09/15 00:22:33;;;;;;;9.82;6.88;;;12.40;99.90;;;;;;2090819;28;20029;-69
2023/09/15 00:23:34;;;;;;;11.98;7.18;;;12.40;99.90;;;;;;2092459;28;20016;-69
2023/09/15 00:24:35;;;;;;;8.15;6.30;;;12.30;99.90;;;;;;2085514;28;20032;-69
2023/09/15 00:25:35;;;;;;;8.68;6.70;;;12.30;99.90;;;;;;2091716;28;20056;-68
2023/09/15 00:26:37;;;;;;;9.77;6.95;;;12.30;99.90;;;;;;2090848;28;20051;-68
2023/09/15 00:27:38;;;;;;;10.63;6.70;;;12.30;99.90;;;;;;2086483;28;20310;-69
2023/09/15 00:28:39;;;;;;;8.25;6.50;;;12.30;99.90;;;;;;2094117;28;20024;-69
2023/09/15 00:29:40;;;;;;;8.02;6.30;;;12.30;99.90;;;;;;2080401;28;20515;-69
2023/09/15 00:30:41;;;;;;;10.85;6.45;;;12.20;99.90;;;;;;2088520;28;20030;-70
2023/09/15 00:31:41;;;;;;;9.63;6.60;;;12.20;99.90;;;;;;2099345;28;20024;-69
2023/09/15 00:32:43;;;;;;;8.55;6.40;;;12.20;99.90;;;;;;2091634;28;20077;-69
2023/09/15 00:33:43;;;;;;;7.82;5.85;;;12.20;99.90;;;;;;2092354;28;20071;-69
2023/09/15 00:34:44;;;;;;;9.15;6.22;;;12.20;99.90;;;;;;2089258;28;20025;-69
2023/09/15 00:35:47;;;;;;;9.77;6.75;;;12.10;99.90;;;;;;2093704;28;20082;-69
2023/09/15 00:36:49;;;;;;;8.70;6.60;;;12.10;99.90;;;;;;2089321;28;20035;-68
2023/09/15 00:37:52;;;;;;;9.35;6.32;;;12.10;99.90;;;;;;2086484;28;20068;-68
2023/09/15 00:38:54;;;;;;;9.65;6.80;;;12.20;99.90;;;;;;2091359;28;20094;-69
2023/09/15 00:39:54;;;;;;;8.25;6.32;;;12.10;99.90;;;;;;2093292;28;20035;-68
2023/09/15 00:40:55;;;;;;;10.13;6.38;;;12.10;99.90;;;;;;2093283;28;20036;-68
2023/09/15 00:41:55;;;;;;;11.35;6.50;;;12.10;99.90;;;;;;2088362;28;20038;-68
2023/09/15 00:42:56;;;;;;;8.57;6.60;;;12.10;99.90;;;;;;2085008;28;20033;-69
2023/09/15 00:43:57;;;;;;;11.07;6.63;;;12.10;99.90;;;;;;2095890;28;20518;-69
2023/09/15 00:45:04;;;;;;;8.68;6.43;;;12.10;99.90;;;;;;2094566;28;20346;-70
2023/09/15 00:46:05;;;;;;;9.80;6.75;;;12.10;99.90;;;;;;2088234;28;20017;-69
2023/09/15 00:47:06;;;;;;;9.38;6.35;;;12.10;99.90;;;;;;2096902;28;20086;-68
2023/09/15 00:48:08;;;;;;;12.20;6.53;;;12.10;99.90;;;;;;2095648;28;20503;-68
2023/09/15 00:49:08;;;;;;;9.02;6.70;;;12.10;99.90;;;;;;2081595;28;20115;-69
2023/09/15 00:50:13;;;;;;;9.07;6.20;;;12.10;99.90;;;;;;2094256;28;20032;-69
2023/09/15 00:51:14;;;;;;;13.00;6.60;;;12.10;99.90;;;;;;2094010;28;20726;-69
2023/09/15 00:52:16;;;;;;;10.60;6.63;;;12.10;99.90;;;;;;2091360;28;20046;-68
2023/09/15 00:53:19;;;;;;;8.60;6.55;;;12.10;99.90;;;;;;2093396;28;20091;-70
2023/09/15 00:54:21;;;;;;;8.98;6.30;;;12.10;99.90;;;;;;2089429;28;20670;-69
2023/09/15 00:55:24;;;;;;;9.43;6.90;;;12.10;99.90;;;;;;2087688;28;20538;-70
2023/09/15 00:56:26;;;;;;;8.75;6.88;;;12.10;99.90;;;;;;2087995;28;20021;-70
2023/09/15 00:57:27;;;;;;;10.77;6.70;;;12.10;99.90;;;;;;2086663;28;20515;-70
2023/09/15 00:58:28;;;;;;;8.82;6.20;;;12.10;99.90;;;;;;2082614;28;20518;-70
2023/09/15 00:59:29;;;;;;;8.20;6.05;;;12.10;99.90;;;;;;2087031;28;20041;-70
2023/09/15 01:00:30;;;;;;;8.80;6.65;;;12.10;99.90;;;;;;2094327;28;20128;-70
2023/09/15 01:01:31;;;;;;;9.25;6.40;;;12.10;99.90;;;;;;2093424;28;20075;-69
2023/09/15 01:02:32;;;;;;;7.38;5.93;;;12.10;99.90;;;;;;2090113;28;20090;-70
2023/09/15 01:03:38;;;;;;;8.25;6.05;;;12.10;99.90;;;;;;2093176;28;20570;-69
2023/09/15 01:04:41;;;;;;;7.00;5.50;;;12.10;99.90;;;;;;2096559;28;20530;-68
2023/09/15 01:05:43;;;;;;;6.90;5.85;;;12.00;99.90;;;;;;2095063;28;20093;-69
2023/09/15 01:06:46;;;;;;;7.60;5.93;;;12.00;99.90;;;;;;2096227;28;20032;-69
2023/09/15 01:07:52;;;;;;;9.07;5.55;;;12.00;99.90;;;;;;2082096;28;20025;-69
2023/09/15 01:08:53;;;;;;;7.50;5.72;;;12.00;99.90;;;;;;2087650;28;20028;-68
2023/09/15 01:09:54;;;;;;;6.88;5.82;;;12.00;99.90;;;;;;2094006;28;20546;-70
2023/09/15 01:10:54;;;;;;;9.32;6.10;;;12.00;99.90;;;;;;2071436;28;20581;-70
2023/09/15 01:11:55;;;;;;;9.32;5.97;;;11.90;99.90;;;;;;2084818;28;20026;-70
2023/09/15 01:12:56;;;;;;;6.97;5.70;;;11.90;99.90;;;;;;2090904;28;20594;-70
2023/09/15 01:13:57;;;;;;;10.23;6.10;;;11.90;99.90;;;;;;2083129;28;20071;-70
2023/09/15 01:14:57;;;;;;;10.82;5.90;;;11.90;99.90;;;;;;2093669;28;20211;-68
2023/09/15 01:16:12;;;;;;;8.93;6.15;;;11.90;99.90;;;;;;2092712;28;20015;-67
2023/09/15 01:17:25;;;;;;;8.18;6.38;;;11.90;99.90;;;;;;2088272;28;20025;-68
2023/09/15 01:19:10;;;;;;;9.00;5.95;;;11.90;99.90;;;;;;2087618;28;20025;-77
2023/09/15 01:20:36;;;;;;;10.15;6.28;;;11.80;99.90;;;;;;2079113;28;20045;-77
2023/09/15 01:21:50;;;;;;;10.70;6.20;;;11.80;99.90;;;;;;2090047;28;20029;-77
2023/09/15 01:23:03;;;;;;;7.70;5.90;;;11.80;99.90;;;;;;2093638;28;20031;-77
2023/09/15 01:24:29;;;;;;;9.70;6.45;;;11.70;99.90;;;;;;2085617;28;20055;-77
2023/09/15 01:25:51;;;;;;;9.75;6.43;;;11.80;99.90;;;;;;2088799;28;20060;-78
2023/09/15 01:27:04;;;;;;;9.73;6.03;;;11.70;99.90;;;;;;2085251;28;20036;-79
2023/09/15 01:28:11;;;;;;;10.23;6.28;;;11.80;99.90;;;;;;2089172;28;20035;-75
2023/09/15 01:29:29;;;;;;;9.13;5.55;;;11.70;99.90;;;;;;2096076;28;20047;-79
2023/09/15 01:30:31;;;;;;;8.60;5.97;;;11.80;99.90;;;;;;2093517;28;20064;-79
2023/09/15 01:31:34;;;;;;;7.22;5.65;;;11.70;99.90;;;;;;2088588;28;20036;-79
2023/09/15 01:32:35;;;;;;;8.75;5.57;;;11.70;99.90;;;;;;2093783;28;20491;-79
2023/09/15 01:33:37;;;;;;;9.60;6.00;;;11.70;99.90;;;;;;2086158;28;20049;-79
2023/09/15 01:34:45;;;;;;;7.13;5.93;;;11.70;99.90;;;;;;2095347;28;20031;-79
2023/09/15 01:35:45;;;;;;;8.88;5.82;;;11.70;99.90;;;;;;2083263;28;20040;-78
2023/09/15 01:36:46;;;;;;;9.20;5.80;;;11.80;99.90;;;;;;2093758;28;20051;-78
2023/09/15 01:37:46;;;;;;;8.68;5.93;;;11.70;99.90;;;;;;2091578;28;20071;-79
2023/09/15 01:38:47;;;;;;;6.72;5.60;;;11.70;99.90;;;;;;2095818;28;20599;-78
2023/09/15 01:39:48;;;;;;;10.80;6.25;;;11.70;99.90;;;;;;2084377;28;20520;-78
2023/09/15 01:40:48;;;;;;;6.70;5.43;;;11.70;99.90;;;;;;2092540;28;20053;-78
2023/09/15 01:41:49;;;;;;;8.35;5.85;;;11.70;99.90;;;;;;2095749;28;20607;-78
2023/09/15 01:42:52;;;;;;;8.73;5.75;;;11.60;99.90;;;;;;2088759;28;20495;-78
2023/09/15 01:43:54;;;;;;;8.32;6.25;;;11.60;99.90;;;;;;2096174;28;20538;-78
2023/09/15 01:44:55;;;;;;;6.63;5.50;;;11.60;99.90;;;;;;2095873;28;20036;-79
2023/09/15 01:45:56;;;;;;;9.18;6.10;;;11.50;99.90;;;;;;2090844;28;20474;-77
2023/09/15 01:46:57;;;;;;;6.90;5.60;;;11.60;99.90;;;;;;2079831;28;20041;-78
2023/09/15 01:47:58;;;;;;;8.25;5.57;;;11.60;99.90;;;;;;2093675;28;20290;-78
2023/09/15 01:48:59;;;;;;;8.32;5.60;;;11.50;99.90;;;;;;2082662;28;20033;-80
2023/09/15 01:50:01;;;;;;;8.85;5.93;;;11.50;99.90;;;;;;2094856;28;20024;-78
2023/09/15 01:51:03;;;;;;;9.02;5.70;;;11.50;99.90;;;;;;2094866;28;20017;-77
2023/09/15 01:52:04;;;;;;;7.95;5.65;;;11.50;99.90;;;;;;2093491;28;20032;-78
2023/09/15 01:53:07;;;;;;;7.18;5.40;;;11.50;99.90;;;;;;2078888;28;20043;-81
2023/09/15 01:54:09;;;;;;;8.93;5.40;;;11.50;99.90;;;;;;2087365;28;20032;-79
2023/09/15 01:55:10;;;;;;;6.43;5.43;;;11.50;99.90;;;;;;2091566;28;20120;-78
2023/09/15 01:56:11;;;;;;;7.22;5.50;;;11.50;99.90;;;;;;2084296;28;20841;-78
2023/09/15 01:57:12;;;;;;;8.40;5.82;;;11.40;99.90;;;;;;2085055;28;20148;-79
2023/09/15 01:58:12;;;;;;;8.65;5.57;;;11.40;99.90;;;;;;2082495;28;20033;-79
2023/09/15 01:59:13;;;;;;;8.57;5.55;;;11.40;99.90;;;;;;2091906;28;20035;-79
2023/09/15 02:00:14;;;;;;;8.48;5.82;;;11.40;99.90;;;;;;2077498;28;20064;-78
2023/09/15 02:01:16;;;;;;;6.68;5.40;;;11.40;99.90;;;;;;2078816;28;20029;-78
2023/09/15 02:02:17;;;;;;;6.95;5.55;;;11.40;99.90;;;;;;2075758;28;20030;-78
2023/09/15 02:03:17;;;;;;;7.47;5.70;;;11.40;99.90;;;;;;2093433;28;20514;-80
2023/09/15 02:04:18;;;;;;;8.57;5.75;;;11.40;99.90;;;;;;2104749;28;20030;-78
2023/09/15 02:05:23;;;;;;;6.97;5.25;;;11.40;99.90;;;;;;2095934;28;20506;-78
2023/09/15 02:06:24;;;;;;;7.15;5.50;;;11.40;99.90;;;;;;2094142;28;20008;-80
2023/09/15 02:07:24;;;;;;;8.25;5.60;;;11.30;99.90;;;;;;2091416;28;20104;-74
2023/09/15 02:08:25;;;;;;;8.52;5.50;;;11.40;99.90;;;;;;2087658;28;20033;-75
2023/09/15 02:09:26;;;;;;;9.02;5.80;;;11.30;99.90;;;;;;2089678;28;20466;-75
2023/09/15 02:10:26;;;;;;;8.75;5.70;;;11.30;99.90;;;;;;2083846;28;20120;-76
2023/09/15 02:11:27;;;;;;;8.50;6.07;;;11.30;99.90;;;;;;2087357;28;20078;-76
2023/09/15 02:12:27;;;;;;;7.05;5.40;;;11.30;99.90;;;;;;2083269;28;20119;-74
2023/09/15 02:13:28;;;;;;;6.93;5.18;;;11.30;99.90;;;;;;2078242;28;20106;-74
2023/09/15 02:14:29;;;;;;;8.90;5.85;;;11.20;99.90;;;;;;2068122;28;20048;-74
2023/09/15 02:15:29;;;;;;;8.05;5.35;;;11.20;99.90;;;;;;2082719;28;20037;-74
2023/09/15 02:16:31;;;;;;;10.43;5.85;;;11.20;99.90;;;;;;2094824;28;20471;-73
2023/09/15 02:17:32;;;;;;;10.25;5.82;;;11.20;99.90;;;;;;2084872;28;20120;-74
2023/09/15 02:18:33;;;;;;;6.88;5.25;;;11.20;99.90;;;;;;2087690;28;20538;-74
2023/09/15 02:19:34;;;;;;;6.90;5.30;;;11.10;99.90;;;;;;2103271;28;20041;-74
2023/09/15 02:20:34;;;;;;;8.82;5.97;;;11.10;99.90;;;;;;2092208;28;20240;-75
2023/09/15 02:21:35;;;;;;;8.43;5.50;;;11.10;99.90;;;;;;2092160;28;20309;-75
2023/09/15 02:22:36;;;;;;;7.22;5.55;;;11.10;99.90;;;;;;2094980;28;20483;-75
2023/09/15 02:23:37;;;;;;;6.50;5.45;;;11.10;99.90;;;;;;2079468;28;20516;-74
2023/09/15 02:24:38;;;;;;;9.20;5.32;;;11.00;99.90;;;;;;2087791;28;20069;-74
2023/09/15 02:25:39;;;;;;;6.22;5.00;;;11.10;99.90;;;;;;2096292;28;20382;-75
2023/09/15 02:26:40;;;;;;;8.68;5.35;;;11.10;99.90;;;;;;2084920;28;20028;-74
2023/09/15 02:27:40;;;;;;;8.13;6.10;;;11.10;99.90;;;;;;2091347;28;20066;-74
2023/09/15 02:28:41;;;;;;;7.68;5.43;;;11.00;99.90;;;;;;2092507;28;20055;-74
2023/09/15 02:29:43;;;;;;;7.43;5.75;;;11.00;99.90;;;;;;2091562;28;20648;-75
2023/09/15 02:30:43;;;;;;;9.45;5.80;;;11.00;99.90;;;;;;2084886;28;20040;-74
2023/09/15 02:31:44;;;;;;;7.20;5.57;;;11.00;99.90;;;;;;2090293;28;20104;-74
2023/09/15 02:32:46;;;;;;;7.75;5.43;;;11.00;99.90;;;;;;2093192;28;20081;-74
2023/09/15 02:33:47;;;;;;;8.85;5.45;;;11.00;99.90;;;;;;2085395;28;20431;-75
2023/09/15 02:34:47;;;;;;;9.43;5.90;;;11.00;99.90;;;;;;2082834;28;20033;-74
2023/09/15 02:35:48;;;;;;;12.02;6.05;;;11.00;99.90;;;;;;2089492;28;20020;-75
2023/09/15 02:36:49;;;;;;;10.52;5.90;;;11.00;99.90;;;;;;2092208;28;20590;-74
2023/09/15 02:37:49;;;;;;;8.32;5.78;;;10.90;99.90;;;;;;2086730;28;20025;-75
2023/09/15 02:38:50;;;;;;;8.60;5.50;;;10.90;99.90;;;;;;2088638;28;20112;-75
2023/09/15 02:39:51;;;;;;;7.10;5.47;;;10.90;99.90;;;;;;2091905;28;20419;-75
2023/09/15 02:40:52;;;;;;;8.02;5.80;;;10.90;99.90;;;;;;2090517;28;20194;-75
2023/09/15 02:41:52;;;;;;;9.98;5.60;;;10.90;99.90;;;;;;2093208;28;20229;-75
2023/09/15 02:42:53;;;;;;;9.15;5.47;;;11.00;99.90;;;;;;2091616;28;20054;-75
2023/09/15 02:43:54;;;;;;;6.80;5.20;;;10.90;99.90;;;;;;2087338;28;20051;-75
2023/09/15 02:44:54;;;;;;;8.48;5.60;;;10.90;99.90;;;;;;2088192;28;20408;-75
2023/09/15 02:46:03;;;;;;;6.97;5.45;;;10.90;99.90;;;;;;2091650;28;20031;-75
2023/09/15 02:47:03;;;;;;;7.32;5.05;;;10.90;99.90;;;;;;2089969;28;20483;-75
2023/09/15 02:48:05;;;;;;;8.52;5.68;;;10.90;99.90;;;;;;2085022;28;20108;-75
2023/09/15 02:49:06;;;;;;;8.07;5.88;;;10.90;99.90;;;;;;2091455;28;20508;-75
2023/09/15 02:50:07;;;;;;;7.03;5.28;;;10.90;99.90;;;;;;2082840;28;20103;-75
2023/09/15 02:51:09;;;;;;;7.30;5.50;;;10.90;99.90;;;;;;2079835;28;20124;-74
2023/09/15 02:52:10;;;;;;;7.43;5.30;;;10.90;99.90;;;;;;2083086;28;20346;-74
2023/09/15 02:53:13;;;;;;;5.95;5.22;;;10.90;99.90;;;;;;2086872;28;20037;-74
2023/09/15 02:54:14;;;;;;;8.07;5.45;;;10.90;99.90;;;;;;2076297;28;20041;-74
2023/09/15 02:55:16;;;;;;;8.05;5.65;;;10.90;99.90;;;;;;2081587;28;20215;-74
2023/09/15 02:56:16;;;;;;;7.78;5.65;;;10.90;99.90;;;;;;2082928;28;20072;-74
2023/09/15 02:57:17;;;;;;;7.28;5.55;;;10.90;99.90;;;;;;2084054;28;20039;-75
2023/09/15 02:58:18;;;;;;;7.03;5.45;;;10.90;99.90;;;;;;2076129;28;20742;-75
2023/09/15 02:59:18;;;;;;;7.10;5.45;;;10.90;99.90;;;;;;2077824;28;20053;-76
2023/09/15 03:00:20;;;;;;;10.32;5.18;;;10.90;99.90;;;;;;2079071;28;20064;-76
2023/09/15 03:01:20;;;;;;;6.88;5.50;;;10.90;99.90;;;;;;2086299;28;20032;-75
2023/09/15 03:02:24;;;;;;;7.72;5.35;;;10.90;99.90;;;;;;2086015;28;20111;-74
2023/09/15 03:03:25;;;;;;;7.40;5.60;;;10.90;99.90;;;;;;2091302;28;20101;-76
2023/09/15 03:04:26;;;;;;;8.07;5.55;;;10.90;99.90;;;;;;2095651;28;20024;-76
2023/09/15 03:05:26;;;;;;;6.90;5.43;;;10.90;99.90;;;;;;2078462;28;20714;-76
2023/09/15 03:06:27;;;;;;;7.00;5.60;;;10.90;99.90;;;;;;2085081;28;20032;-76
2023/09/15 03:07:28;;;;;;;7.45;5.55;;;10.90;99.90;;;;;;2083304;28;20033;-76
2023/09/15 03:08:29;;;;;;;7.97;5.57;;;11.00;99.90;;;;;;2075025;28;20662;-76
2023/09/15 03:09:31;;;;;;;8.07;5.30;;;11.00;99.90;;;;;;2083183;28;20026;-76
2023/09/15 03:10:34;;;;;;;5.82;5.10;;;10.90;99.90;;;;;;2066982;28;20073;-76
2023/09/15 03:11:34;;;;;;;6.72;5.50;;;10.90;99.90;;;;;;2074669;28;20033;-76
2023/09/15 03:12:38;;;;;;;8.32;5.40;;;10.90;99.90;;;;;;2087678;28;20614;-76
2023/09/15 03:13:40;;;;;;;7.65;5.35;;;10.90;99.90;;;;;;2082930;28;20021;-76
2023/09/15 03:14:40;;;;;;;7.72;5.30;;;10.90;99.90;;;;;;2087992;28;20048;-73
2023/09/15 03:15:41;;;;;;;7.90;5.70;;;10.90;99.90;;;;;;2086736;28;20021;-73
2023/09/15 03:16:43;;;;;;;8.30;5.05;;;10.90;99.90;;;;;;2087192;28;20094;-74
2023/09/15 03:17:44;;;;;;;6.50;5.40;;;10.90;99.90;;;;;;2083665;28;20495;-75
2023/09/15 03:18:46;;;;;;;9.93;5.72;;;10.90;99.90;;;;;;2094008;28;20048;-76
2023/09/15 03:19:47;;;;;;;9.07;5.80;;;10.90;99.90;;;;;;2094602;28;20056;-76
2023/09/15 03:20:48;;;;;;;7.35;5.38;;;10.90;99.90;;;;;;2077765;28;20032;-76
2023/09/15 03:21:48;;;;;;;8.98;5.95;;;10.90;99.90;;;;;;2079952;28;20033;-75
2023/09/15 03:22:51;;;;;;;11.05;6.05;;;10.90;99.90;;;;;;2080562;28;20010;-75
2023/09/15 03:23:53;;;;;;;6.93;5.65;;;10.90;99.90;;;;;;2083156;28;20123;-74
2023/09/15 03:24:56;;;;;;;7.15;5.60;;;10.80;99.90;;;;;;2090833;28;20032;-75
2023/09/15 03:26:04;;;;;;;7.25;5.47;;;10.80;99.90;;;;;;2078995;28;20055;-74
2023/09/15 03:27:08;;;;;;;7.05;5.47;;;10.80;99.90;;;;;;2082660;28;20344;-74
2023/09/15 03:28:10;;;;;;;7.75;5.50;;;10.80;99.90;;;;;;2083143;28;20041;-75
2023/09/15 03:29:11;;;;;;;7.60;5.40;;;10.80;99.90;;;;;;2094947;28;20129;-73
2023/09/15 03:30:12;;;;;;;7.78;5.43;;;10.80;99.90;;;;;;2074873;28;20049;-74
2023/09/15 03:31:12;;;;;;;8.73;5.57;;;10.70;99.90;;;;;;2066550;28;20029;-75
2023/09/15 03:32:13;;;;;;;8.75;5.88;;;10.70;99.90;;;;;;2075152;28;20033;-75
2023/09/15 03:33:13;;;;;;;7.72;5.13;;;10.70;99.90;;;;;;2091545;28;20042;-73
2023/09/15 03:34:14;;;;;;;16.35;5.40;;;10.70;99.90;;;;;;2091275;28;20071;-73
2023/09/15 03:35:15;;;;;;;8.10;5.72;;;10.70;99.90;;;;;;2090460;28;20028;-74
2023/09/15 03:36:16;;;;;;;7.15;5.47;;;10.70;99.90;;;;;;2087866;28;20064;-74
2023/09/15 03:37:19;;;;;;;7.47;5.57;;;10.70;99.90;;;;;;2082192;28;20028;-74
2023/09/15 03:38:19;;;;;;;7.32;5.38;;;10.70;99.90;;;;;;2088000;28;20112;-75
2023/09/15 03:39:20;;;;;;;7.10;5.55;;;10.60;99.90;;;;;;2092039;28;20044;-74
2023/09/15 03:40:22;;;;;;;8.23;5.78;;;10.60;99.90;;;;;;2089747;28;20039;-74
2023/09/15 03:41:25;;;;;;;7.28;5.25;;;10.60;99.90;;;;;;2086699;28;20044;-74
2023/09/15 03:42:26;;;;;;;7.20;5.57;;;10.60;99.90;;;;;;2085348;28;20511;-74
2023/09/15 03:43:28;;;;;;;8.95;5.70;;;10.60;99.90;;;;;;2084115;28;20462;-76
2023/09/15 03:44:29;;;;;;;8.23;6.15;;;10.60;99.90;;;;;;2078642;28;20118;-76
2023/09/15 03:45:30;;;;;;;7.22;5.35;;;10.60;99.90;;;;;;2082490;28;20026;-76
2023/09/15 03:46:32;;;;;;;7.63;5.65;;;10.60;99.90;;;;;;2088282;28;20036;-74
2023/09/15 03:47:32;;;;;;;8.18;5.47;;;10.60;99.90;;;;;;2080274;28;20018;-74
2023/09/15 03:48:33;;;;;;;8.82;5.45;;;10.60;99.90;;;;;;2083947;28;20379;-74
2023/09/15 03:49:34;;;;;;;9.30;5.90;;;10.60;99.90;;;;;;2078061;28;20524;-75
2023/09/15 03:50:37;;;;;;;9.63;5.88;;;10.50;99.90;;;;;;2073762;28;20036;-77
2023/09/15 03:51:37;;;;;;;7.35;5.60;;;10.50;99.90;;;;;;2076507;28;20029;-74
2023/09/15 03:52:38;;;;;;;7.50;5.43;;;10.50;99.90;;;;;;2091857;28;20437;-74
2023/09/15 03:53:38;;;;;;;6.82;5.35;;;10.50;99.90;;;;;;2086616;28;20289;-74
2023/09/15 03:54:39;;;;;;;7.80;5.50;;;10.50;99.90;;;;;;2093069;28;20043;-74
2023/09/15 03:55:40;;;;;;;10.05;5.70;;;10.50;99.90;;;;;;2083394;28;20043;-76
2023/09/15 03:56:41;;;;;;;7.78;5.40;;;10.50;99.90;;;;;;2086928;28;20036;-76
2023/09/15 03:57:42;;;;;;;8.13;5.30;;;10.50;99.90;;;;;;2091106;28;20034;-75
2023/09/15 03:58:43;;;;;;;8.13;5.65;;;10.50;99.90;;;;;;2090831;28;20020;-75
2023/09/15 03:59:44;;;;;;;7.80;5.60;;;10.40;99.90;;;;;;2088679;28;20299;-75
2023/09/15 04:00:45;;;;;;;10.60;5.43;;;10.40;99.90;;;;;;2089149;28;20032;-73
2023/09/15 04:01:47;;;;;;;7.55;5.45;;;10.40;99.90;;;;;;2088987;28;20028;-76
2023/09/15 04:02:48;;;;;;;8.55;5.60;;;10.40;99.90;;;;;;2088224;28;20082;-77
2023/09/15 04:03:49;;;;;;;7.28;5.30;;;10.40;99.90;;;;;;2091658;28;20036;-75
2023/09/15 04:04:51;;;;;;;7.20;5.53;;;10.40;99.90;;;;;;2085567;28;20025;-76
2023/09/15 04:05:51;;;;;;;8.55;5.35;;;10.40;99.90;;;;;;2088663;28;20051;-76
2023/09/15 04:06:53;;;;;;;9.07;5.72;;;10.40;99.90;;;;;;2082696;28;20028;-75
2023/09/15 04:07:54;;;;;;;8.10;5.75;;;10.40;99.90;;;;;;2077858;28;20032;-84
2023/09/15 04:08:55;;;;;;;7.78;5.78;;;10.40;99.90;;;;;;2092535;28;20158;-83
2023/09/15 04:09:57;;;;;;;10.00;6.13;;;10.40;99.90;;;;;;2094728;28;20063;-83
2023/09/15 04:10:58;;;;;;;6.78;5.15;;;10.40;99.90;;;;;;2092030;28;20064;-84
2023/09/15 04:11:58;;;;;;;7.70;5.60;;;10.40;99.90;;;;;;2093502;28;20309;-83
2023/09/15 04:12:59;;;;;;;8.65;5.70;;;10.30;99.90;;;;;;2089820;28;20033;-83
2023/09/15 04:14:00;;;;;;;8.70;5.85;;;10.30;99.90;;;;;;2078063;28;20044;-81
2023/09/15 04:15:00;;;;;;;9.13;5.72;;;10.30;99.90;;;;;;2081873;28;20432;-82
2023/09/15 04:16:01;;;;;;;9.55;5.70;;;10.30;99.90;;;;;;2090950;28;20558;-80
2023/09/15 04:17:03;;;;;;;7.57;5.82;;;10.30;99.90;;;;;;2087852;28;20039;-80
2023/09/15 04:18:08;;;;;;;10.95;5.95;;;10.30;99.90;;;;;;2077240;28;20044;-81
2023/09/15 04:19:08;;;;;;;8.13;5.65;;;10.30;99.90;;;;;;2073091;28;20112;-80
2023/09/15 04:20:10;;;;;;;7.57;5.60;;;10.30;99.90;;;;;;2084203;28;20029;-81
2023/09/15 04:21:11;;;;;;;7.78;5.68;;;10.30;99.90;;;;;;2092706;28;20055;-80
2023/09/15 04:22:12;;;;;;;8.88;5.40;;;10.30;99.90;;;;;;2085491;28;20031;-80
2023/09/15 04:23:13;;;;;;;8.98;5.97;;;10.30;99.90;;;;;;2090170;28;20112;-80
2023/09/15 04:24:14;;;;;;;6.65;5.38;;;10.30;99.90;;;;;;2082632;28;20515;-80
2023/09/15 04:25:15;;;;;;;6.75;5.47;;;10.30;99.90;;;;;;2095350;28;20503;-83
2023/09/15 04:26:15;;;;;;;9.30;5.82;;;10.30;99.90;;;;;;2090888;28;20308;-80
2023/09/15 04:27:16;;;;;;;8.77;5.85;;;10.30;99.90;;;;;;2074728;28;20567;-82
2023/09/15 04:28:18;;;;;;;9.70;5.70;;;10.30;99.90;;;;;;2083085;28;20060;-80
2023/09/15 04:29:20;;;;;;;8.23;5.50;;;10.30;99.90;;;;;;2067337;28;20464;-80
2023/09/15 04:30:21;;;;;;;7.85;5.70;;;10.40;99.90;;;;;;2079562;28;20037;-80
2023/09/15 04:31:27;;;;;;;8.18;6.00;;;10.40;99.90;;;;;;2085536;28;20096;-77
2023/09/15 04:32:28;;;;;;;7.68;5.53;;;10.40;99.90;;;;;;2078365;28;20045;-79
2023/09/15 04:33:29;;;;;;;7.82;5.68;;;10.40;99.90;;;;;;2082776;28;20119;-80
2023/09/15 04:34:30;;;;;;;7.55;5.70;;;10.40;99.90;;;;;;2091675;28;20024;-79
2023/09/15 04:35:31;;;;;;;6.55;5.50;;;10.40;99.90;;;;;;2093009;28;20039;-83
2023/09/15 04:36:32;;;;;;;9.05;5.85;;;10.40;99.90;;;;;;2085510;28;20499;-81
2023/09/15 04:37:33;;;;;;;8.05;6.00;;;10.40;99.90;;;;;;2085736;28;20464;-81
2023/09/15 04:38:33;;;;;;;11.43;5.95;;;10.40;99.90;;;;;;2089154;28;20622;-80
2023/09/15 04:39:34;;;;;;;12.00;6.30;;;10.40;99.90;;;;;;2087873;28;20442;-81
2023/09/15 04:40:34;;;;;;;10.50;5.80;;;10.40;99.90;;;;;;2091967;28;20031;-82
2023/09/15 04:41:35;;;;;;;7.82;5.90;;;10.40;99.90;;;;;;2088735;28;20417;-83
2023/09/15 04:42:40;;;;;;;8.05;5.75;;;10.40;99.90;;;;;;2079950;28;20083;-81
2023/09/15 04:43:40;;;;;;;8.25;5.90;;;10.50;99.90;;;;;;2075849;28;20101;-80
2023/09/15 04:44:41;;;;;;;8.20;6.10;;;10.50;99.90;;;;;;2089970;28;20433;-78
2023/09/15 04:45:43;;;;;;;7.20;5.40;;;10.40;99.90;;;;;;2075375;28;20029;-78
2023/09/15 04:46:45;;;;;;;9.23;5.90;;;10.40;99.90;;;;;;2082805;28;20507;-78
2023/09/15 04:47:47;;;;;;;8.68;6.10;;;10.50;99.90;;;;;;2090516;28;20051;-77
2023/09/15 04:48:53;;;;;;;9.13;6.00;;;10.50;99.90;;;;;;2084428;28;20547;-78
2023/09/15 04:49:54;;;;;;;8.30;6.15;;;10.50;99.90;;;;;;2088505;28;20211;-78
2023/09/15 04:50:55;;;;;;;9.23;6.22;;;10.50;99.90;;;;;;2083490;28;20033;-78
2023/09/15 04:51:56;;;;;;;7.75;6.10;;;10.50;99.90;;;;;;2085514;28;20050;-78
2023/09/15 04:53:02;;;;;;;7.60;6.40;;;10.50;99.90;;;;;;2091289;28;20025;-77
2023/09/15 04:54:03;;;;;;;7.63;6.03;;;10.50;99.90;;;;;;2092240;28;20107;-77
2023/09/15 04:55:05;;;;;;;8.32;6.00;;;10.50;99.90;;;;;;2092000;28;20037;-79
2023/09/15 04:56:08;;;;;;;6.63;5.80;;;10.60;99.90;;;;;;2083748;28;20054;-77
2023/09/15 04:57:08;;;;;;;7.22;5.80;;;10.60;99.90;;;;;;2083676;28;20392;-77
2023/09/15 04:58:09;;;;;;;7.75;5.95;;;10.60;99.90;;;;;;2086419;28;20032;-77
2023/09/15 04:59:15;;;;;;;10.48;6.10;;;10.60;99.90;;;;;;2082435;28;20032;-77
2023/09/15 05:00:23;;;;;;;8.65;6.03;;;10.60;99.90;;;;;;2079929;28;20492;-76
2023/09/15 05:01:26;;;;;;;8.27;6.00;;;10.60;99.90;;;;;;2078647;28;20043;-77
2023/09/15 05:02:30;;;;;;;7.88;6.07;;;10.60;99.90;;;;;;2079421;28;20497;-77
2023/09/15 05:03:31;;;;;;;9.88;6.30;;;10.60;99.90;;;;;;2085002;28;20494;-77
2023/09/15 05:04:32;;;;;;;8.20;5.75;;;10.60;99.90;;;;;;2092861;28;20119;-77
2023/09/15 05:05:32;;;;;;;9.25;6.45;;;10.70;99.90;;;;;;2090933;28;20447;-77
2023/09/15 05:06:33;;;;;;;12.00;6.97;;;10.70;99.90;;;;;;2076044;28;20056;-77
2023/09/15 05:07:34;;;;;;;8.38;6.38;;;10.70;99.90;;;;;;2076358;28;20029;-77
2023/09/15 05:08:35;;;;;;;10.00;7.00;;;10.70;99.90;;;;;;2086697;28;20457;-76
2023/09/15 05:09:35;;;;;;;9.13;6.60;;;10.70;99.90;;;;;;2088431;28;20554;-77
2023/09/15 05:10:36;;;;;;;10.00;6.53;;;10.70;99.90;;;;;;2098561;28;20024;-75
2023/09/15 05:11:37;;;;;;;9.27;6.28;;;10.70;99.90;;;;;;2099077;28;20066;-77
2023/09/15 05:12:38;;;;;;;10.30;6.40;;;10.70;99.90;;;;;;2091897;28;20021;-74
2023/09/15 05:13:38;;;;;;;12.05;6.70;;;10.60;99.90;;;;;;2080387;28;20086;-75
2023/09/15 05:14:39;;;;;;;10.05;6.28;;;10.60;99.90;;;;;;2091738;28;20020;-75
2023/09/15 05:15:40;;;;;;;10.98;6.90;;;10.70;99.90;;;;;;2099301;28;20035;-76
2023/09/15 05:16:41;;;;;;;12.38;7.13;;;10.60;99.90;;;;;;2090997;28;20083;-75
2023/09/15 05:17:44;;;;;;;13.43;6.93;;;10.70;99.90;;;;;;2090416;28;20029;-75
2023/09/15 05:18:45;;;;;;;10.15;6.60;;;10.70;99.90;;;;;;2094396;28;20093;-76
2023/09/15 05:19:47;;;;;;;9.90;6.80;;;10.70;99.90;;;;;;2085460;28;20558;-75
2023/09/15 05:20:47;;;;;;;9.27;6.20;;;10.70;99.90;;;;;;2085963;28;20017;-75
2023/09/15 05:21:48;;;;;;;9.50;6.70;;;10.70;99.90;;;;;;2078518;28;20103;-75
2023/09/15 05:22:49;;;;;;;9.57;6.50;;;10.70;99.90;;;;;;2074299;28;20032;-77